sensor_id;sensor_type;location;lat;lon;timestamp;P1;durP1;ratioP1;P2;durP2;ratioP2
2462;SDS011;1243;54.298;10.172;2024-01-11T00:01:58;19.92;;;13.40;;
2462;SDS011;1243;54.298;10.172;2024-01-11T00:04:24;23.43;;;14.30;;
2462;SDS011;1243;54.298;10.172;2024-01-11T00:06:51;20.90;;;14.00;;
2462;SDS011;1243;54.298;10.172;2024-01-11T00:09:16;23.40;;;14.50;;
2462;SDS011;1243;54.298;10.172;2024-01-11T00:11:42;25.77;;;14.20;;
2462;SDS011;1243;54.298;10.172;2024-01-11T00:14:08;25.10;;;13.57;;
2462;SDS011;1243;54.298;10.172;2024-01-11T00:16:34;24.83;;;13.97;;
2462;SDS011;1243;54.298;10.172;2024-01-11T00:18:59;26.00;;;18.20;;
2462;SDS011;1243;54.298;10.172;2024-01-11T00:21:25;29.30;;;16.30;;
2462;SDS011;1243;54.298;10.172;2024-01-11T00:23:51;28.00;;;16.33;;
2462;SDS011;1243;54.298;10.172;2024-01-11T00:26:16;29.33;;;16.00;;
2462;SDS011;1243;54.298;10.172;2024-01-11T00:28:42;27.80;;;14.97;;
2462;SDS011;1243;54.298;10.172;2024-01-11T00:31:08;27.50;;;15.60;;
2462;SDS011;1243;54.298;10.172;2024-01-11T00:33:33;30.00;;;16.23;;
2462;SDS011;1243;54.298;10.172;2024-01-11T00:35:59;28.07;;;14.87;;
2462;SDS011;1243;54.298;10.172;2024-01-11T00:38:25;27.33;;;15.27;;
2462;SDS011;1243;54.298;10.172;2024-01-11T00:40:50;29.07;;;16.37;;
2462;SDS011;1243;54.298;10.172;2024-01-11T00:43:16;29.97;;;16.07;;
2462;SDS011;1243;54.298;10.172;2024-01-11T00:45:42;27.37;;;16.17;;
2462;SDS011;1243;54.298;10.172;2024-01-11T00:48:08;26.17;;;14.60;;
2462;SDS011;1243;54.298;10.172;2024-01-11T00:50:34;26.30;;;15.57;;
2462;SDS011;1243;54.298;10.172;2024-01-11T00:53:00;20.37;;;12.90;;
2462;SDS011;1243;54.298;10.172;2024-01-11T00:55:26;18.43;;;11.40;;
2462;SDS011;1243;54.298;10.172;2024-01-11T00:57:52;18.93;;;12.83;;
2462;SDS011;1243;54.298;10.172;2024-01-11T01:00:17;17.60;;;12.03;;
2462;SDS011;1243;54.298;10.172;2024-01-11T01:02:43;18.60;;;12.23;;
2462;SDS011;1243;54.298;10.172;2024-01-11T01:05:09;19.00;;;11.97;;
2462;SDS011;1243;54.298;10.172;2024-01-11T01:07:35;21.50;;;13.80;;
2462;SDS011;1243;54.298;10.172;2024-01-11T01:10:00;17.67;;;12.50;;
2462;SDS011;1243;54.298;10.172;2024-01-11T01:12:27;15.20;;;12.07;;
2462;SDS011;1243;54.298;10.172;2024-01-11T01:14:53;16.97;;;11.53;;
2462;SDS011;1243;54.298;10.172;2024-01-11T01:17:20;19.97;;;12.53;;
2462;SDS011;1243;54.298;10.172;2024-01-11T01:19:49;18.63;;;12.30;;
2462;SDS011;1243;54.298;10.172;2024-01-11T01:22:15;14.67;;;11.30;;
2462;SDS011;1243;54.298;10.172;2024-01-11T01:24:40;11.53;;;9.80;;
2462;SDS011;1243;54.298;10.172;2024-01-11T01:27:06;13.10;;;9.93;;
2462;SDS011;1243;54.298;10.172;2024-01-11T01:29:32;15.60;;;11.43;;
2462;SDS011;1243;54.298;10.172;2024-01-11T01:31:57;13.93;;;9.37;;
2462;SDS011;1243;54.298;10.172;2024-01-11T01:34:23;13.43;;;10.93;;
2462;SDS011;1243;54.298;10.172;2024-01-11T01:36:48;11.57;;;8.80;;
2462;SDS011;1243;54.298;10.172;2024-01-11T01:39:14;14.13;;;10.93;;
2462;SDS011;1243;54.298;10.172;2024-01-11T01:41:40;15.50;;;9.90;;
2462;SDS011;1243;54.298;10.172;2024-01-11T01:44:06;16.00;;;9.33;;
2462;SDS011;1243;54.298;10.172;2024-01-11T01:46:32;14.57;;;10.20;;
2462;SDS011;1243;54.298;10.172;2024-01-11T01:48:59;10.77;;;8.43;;
2462;SDS011;1243;54.298;10.172;2024-01-11T01:51:26;12.07;;;8.77;;
2462;SDS011;1243;54.298;10.172;2024-01-11T01:53:54;13.30;;;8.80;;
2462;SDS011;1243;54.298;10.172;2024-01-11T01:56:21;16.87;;;8.90;;
2462;SDS011;1243;54.298;10.172;2024-01-11T01:58:48;11.97;;;8.57;;
2462;SDS011;1243;54.298;10.172;2024-01-11T02:01:16;12.27;;;8.87;;
2462;SDS011;1243;54.298;10.172;2024-01-11T02:03:45;14.03;;;9.83;;
2462;SDS011;1243;54.298;10.172;2024-01-11T02:06:11;12.43;;;8.90;;
2462;SDS011;1243;54.298;10.172;2024-01-11T02:08:40;12.43;;;9.25;;
2462;SDS011;1243;54.298;10.172;2024-01-11T02:11:08;15.30;;;9.77;;
2462;SDS011;1243;54.298;10.172;2024-01-11T02:13:35;13.73;;;9.10;;
2462;SDS011;1243;54.298;10.172;2024-01-11T02:16:02;12.10;;;8.83;;
2462;SDS011;1243;54.298;10.172;2024-01-11T02:18:28;11.50;;;9.20;;
2462;SDS011;1243;54.298;10.172;2024-01-11T02:20:54;13.07;;;9.57;;
2462;SDS011;1243;54.298;10.172;2024-01-11T02:23:21;13.27;;;9.17;;
2462;SDS011;1243;54.298;10.172;2024-01-11T02:25:49;14.70;;;8.87;;
2462;SDS011;1243;54.298;10.172;2024-01-11T02:28:15;14.67;;;10.37;;
2462;SDS011;1243;54.298;10.172;2024-01-11T02:30:40;11.93;;;10.63;;
2462;SDS011;1243;54.298;10.172;2024-01-11T02:33:06;13.83;;;9.57;;
2462;SDS011;1243;54.298;10.172;2024-01-11T02:35:32;11.07;;;8.13;;
2462;SDS011;1243;54.298;10.172;2024-01-11T02:38:00;14.40;;;9.67;;
2462;SDS011;1243;54.298;10.172;2024-01-11T02:40:26;9.40;;;7.90;;
2462;SDS011;1243;54.298;10.172;2024-01-11T02:42:52;10.43;;;9.03;;
2462;SDS011;1243;54.298;10.172;2024-01-11T02:45:18;14.50;;;9.60;;
2462;SDS011;1243;54.298;10.172;2024-01-11T02:47:44;16.30;;;10.20;;
2462;SDS011;1243;54.298;10.172;2024-01-11T02:50:09;10.03;;;7.97;;
2462;SDS011;1243;54.298;10.172;2024-01-11T02:52:37;11.37;;;8.60;;
2462;SDS011;1243;54.298;10.172;2024-01-11T02:55:03;10.70;;;8.90;;
2462;SDS011;1243;54.298;10.172;2024-01-11T02:57:29;12.33;;;8.47;;
2462;SDS011;1243;54.298;10.172;2024-01-11T02:59:54;12.17;;;8.30;;
2462;SDS011;1243;54.298;10.172;2024-01-11T03:02:20;9.97;;;7.40;;
2462;SDS011;1243;54.298;10.172;2024-01-11T03:04:46;11.23;;;7.77;;
2462;SDS011;1243;54.298;10.172;2024-01-11T03:07:12;11.03;;;8.53;;
2462;SDS011;1243;54.298;10.172;2024-01-11T03:09:37;8.53;;;7.63;;
2462;SDS011;1243;54.298;10.172;2024-01-11T03:12:03;10.50;;;8.07;;
2462;SDS011;1243;54.298;10.172;2024-01-11T03:14:31;14.33;;;8.70;;
2462;SDS011;1243;54.298;10.172;2024-01-11T03:16:57;12.97;;;7.70;;
2462;SDS011;1243;54.298;10.172;2024-01-11T03:19:22;9.57;;;8.33;;
2462;SDS011;1243;54.298;10.172;2024-01-11T03:21:48;12.17;;;8.30;;
2462;SDS011;1243;54.298;10.172;2024-01-11T03:24:14;12.67;;;8.30;;
2462;SDS011;1243;54.298;10.172;2024-01-11T03:26:40;11.73;;;8.57;;
2462;SDS011;1243;54.298;10.172;2024-01-11T03:29:06;8.73;;;7.80;;
2462;SDS011;1243;54.298;10.172;2024-01-11T03:31:32;9.90;;;7.97;;
2462;SDS011;1243;54.298;10.172;2024-01-11T03:33:57;10.70;;;9.17;;
2462;SDS011;1243;54.298;10.172;2024-01-11T03:36:23;10.43;;;8.33;;
2462;SDS011;1243;54.298;10.172;2024-01-11T03:38:50;13.70;;;9.17;;
2462;SDS011;1243;54.298;10.172;2024-01-11T03:41:15;11.73;;;8.63;;
2462;SDS011;1243;54.298;10.172;2024-01-11T03:43:41;11.07;;;7.90;;
2462;SDS011;1243;54.298;10.172;2024-01-11T03:46:07;11.53;;;8.57;;
2462;SDS011;1243;54.298;10.172;2024-01-11T03:48:33;11.23;;;9.17;;
2462;SDS011;1243;54.298;10.172;2024-01-11T03:51:00;12.30;;;8.90;;
2462;SDS011;1243;54.298;10.172;2024-01-11T03:53:26;13.50;;;8.93;;
2462;SDS011;1243;54.298;10.172;2024-01-11T03:55:52;12.70;;;8.33;;
2462;SDS011;1243;54.298;10.172;2024-01-11T03:58:18;12.43;;;8.70;;
2462;SDS011;1243;54.298;10.172;2024-01-11T04:00:44;14.10;;;7.50;;
2462;SDS011;1243;54.298;10.172;2024-01-11T04:03:09;11.57;;;8.00;;
2462;SDS011;1243;54.298;10.172;2024-01-11T04:05:35;13.90;;;7.93;;
2462;SDS011;1243;54.298;10.172;2024-01-11T04:08:05;14.83;;;8.33;;
2462;SDS011;1243;54.298;10.172;2024-01-11T04:10:32;15.47;;;8.80;;
2462;SDS011;1243;54.298;10.172;2024-01-11T04:12:57;17.43;;;7.33;;
2462;SDS011;1243;54.298;10.172;2024-01-11T04:15:23;12.97;;;7.30;;
2462;SDS011;1243;54.298;10.172;2024-01-11T04:17:49;10.17;;;7.33;;
2462;SDS011;1243;54.298;10.172;2024-01-11T04:20:14;9.60;;;7.33;;
2462;SDS011;1243;54.298;10.172;2024-01-11T04:22:40;16.40;;;7.17;;
2462;SDS011;1243;54.298;10.172;2024-01-11T04:25:06;10.70;;;7.40;;
2462;SDS011;1243;54.298;10.172;2024-01-11T04:27:32;10.73;;;6.93;;
2462;SDS011;1243;54.298;10.172;2024-01-11T04:29:58;11.13;;;7.80;;
2462;SDS011;1243;54.298;10.172;2024-01-11T04:32:24;13.20;;;5.67;;
2462;SDS011;1243;54.298;10.172;2024-01-11T04:34:49;8.80;;;6.07;;
2462;SDS011;1243;54.298;10.172;2024-01-11T04:37:15;16.23;;;6.10;;
2462;SDS011;1243;54.298;10.172;2024-01-11T04:39:41;7.80;;;5.90;;
2462;SDS011;1243;54.298;10.172;2024-01-11T04:42:06;7.30;;;5.97;;
2462;SDS011;1243;54.298;10.172;2024-01-11T04:44:32;7.07;;;6.33;;
2462;SDS011;1243;54.298;10.172;2024-01-11T04:46:58;7.30;;;5.70;;
2462;SDS011;1243;54.298;10.172;2024-01-11T04:49:23;5.77;;;5.17;;
2462;SDS011;1243;54.298;10.172;2024-01-11T04:51:49;6.97;;;5.27;;
2462;SDS011;1243;54.298;10.172;2024-01-11T04:54:15;6.63;;;5.33;;
2462;SDS011;1243;54.298;10.172;2024-01-11T04:56:40;7.37;;;6.03;;
2462;SDS011;1243;54.298;10.172;2024-01-11T04:59:06;8.70;;;4.53;;
2462;SDS011;1243;54.298;10.172;2024-01-11T05:01:32;8.77;;;5.77;;
2462;SDS011;1243;54.298;10.172;2024-01-11T05:03:58;7.37;;;4.90;;
2462;SDS011;1243;54.298;10.172;2024-01-11T05:06:23;5.60;;;4.60;;
2462;SDS011;1243;54.298;10.172;2024-01-11T05:08:50;4.57;;;3.77;;
2462;SDS011;1243;54.298;10.172;2024-01-11T05:13:46;5.10;;;4.40;;
2462;SDS011;1243;54.298;10.172;2024-01-11T05:16:23;8.57;;;4.60;;
2462;SDS011;1243;54.298;10.172;2024-01-11T05:18:51;5.70;;;4.73;;
2462;SDS011;1243;54.298;10.172;2024-01-11T05:21:18;5.80;;;4.60;;
2462;SDS011;1243;54.298;10.172;2024-01-11T05:23:44;8.05;;;5.10;;
2462;SDS011;1243;54.298;10.172;2024-01-11T05:26:10;6.97;;;5.60;;
2462;SDS011;1243;54.298;10.172;2024-01-11T05:28:38;10.83;;;5.67;;
2462;SDS011;1243;54.298;10.172;2024-01-11T05:31:05;6.90;;;4.70;;
2462;SDS011;1243;54.298;10.172;2024-01-11T05:33:35;7.20;;;6.40;;
2462;SDS011;1243;54.298;10.172;2024-01-11T05:36:00;6.00;;;5.40;;
2462;SDS011;1243;54.298;10.172;2024-01-11T05:38:27;8.20;;;5.40;;
2462;SDS011;1243;54.298;10.172;2024-01-11T05:40:53;7.37;;;5.10;;
2462;SDS011;1243;54.298;10.172;2024-01-11T05:43:19;6.73;;;4.80;;
2462;SDS011;1243;54.298;10.172;2024-01-11T05:45:44;7.47;;;4.80;;
2462;SDS011;1243;54.298;10.172;2024-01-11T05:48:10;6.77;;;5.30;;
2462;SDS011;1243;54.298;10.172;2024-01-11T05:50:36;7.87;;;5.67;;
2462;SDS011;1243;54.298;10.172;2024-01-11T05:53:02;7.80;;;5.37;;
2462;SDS011;1243;54.298;10.172;2024-01-11T05:55:28;5.07;;;4.33;;
2462;SDS011;1243;54.298;10.172;2024-01-11T05:57:54;7.63;;;5.67;;
2462;SDS011;1243;54.298;10.172;2024-01-11T06:00:19;8.60;;;5.53;;
2462;SDS011;1243;54.298;10.172;2024-01-11T06:02:45;7.20;;;5.53;;
2462;SDS011;1243;54.298;10.172;2024-01-11T06:05:11;8.93;;;4.77;;
2462;SDS011;1243;54.298;10.172;2024-01-11T06:07:40;7.10;;;4.20;;
2462;SDS011;1243;54.298;10.172;2024-01-11T06:10:06;6.20;;;4.37;;
2462;SDS011;1243;54.298;10.172;2024-01-11T06:12:33;7.10;;;5.27;;
2462;SDS011;1243;54.298;10.172;2024-01-11T06:15:00;12.53;;;4.57;;
2462;SDS011;1243;54.298;10.172;2024-01-11T06:17:26;8.70;;;4.93;;
2462;SDS011;1243;54.298;10.172;2024-01-11T06:19:52;10.10;;;4.40;;
2462;SDS011;1243;54.298;10.172;2024-01-11T06:22:18;7.63;;;4.73;;
2462;SDS011;1243;54.298;10.172;2024-01-11T06:24:43;4.57;;;3.83;;
2462;SDS011;1243;54.298;10.172;2024-01-11T06:27:09;6.63;;;4.47;;
2462;SDS011;1243;54.298;10.172;2024-01-11T06:29:35;7.37;;;4.43;;
2462;SDS011;1243;54.298;10.172;2024-01-11T06:32:01;6.07;;;5.63;;
2462;SDS011;1243;54.298;10.172;2024-01-11T06:34:27;8.43;;;4.03;;
2462;SDS011;1243;54.298;10.172;2024-01-11T06:36:53;5.80;;;5.20;;
2462;SDS011;1243;54.298;10.172;2024-01-11T06:39:20;5.10;;;4.60;;
2462;SDS011;1243;54.298;10.172;2024-01-11T06:41:46;6.47;;;4.20;;
2462;SDS011;1243;54.298;10.172;2024-01-11T06:44:11;4.53;;;4.10;;
2462;SDS011;1243;54.298;10.172;2024-01-11T06:46:37;4.53;;;3.77;;
2462;SDS011;1243;54.298;10.172;2024-01-11T06:49:07;7.17;;;4.43;;
2462;SDS011;1243;54.298;10.172;2024-01-11T06:51:33;4.30;;;3.90;;
2462;SDS011;1243;54.298;10.172;2024-01-11T06:53:59;5.30;;;4.10;;
2462;SDS011;1243;54.298;10.172;2024-01-11T06:56:26;9.77;;;4.07;;
2462;SDS011;1243;54.298;10.172;2024-01-11T06:58:52;6.87;;;5.17;;
2462;SDS011;1243;54.298;10.172;2024-01-11T07:01:19;5.50;;;4.47;;
2462;SDS011;1243;54.298;10.172;2024-01-11T07:03:45;9.10;;;4.27;;
2462;SDS011;1243;54.298;10.172;2024-01-11T07:06:11;7.43;;;4.27;;
2462;SDS011;1243;54.298;10.172;2024-01-11T07:08:37;5.30;;;3.83;;
2462;SDS011;1243;54.298;10.172;2024-01-11T07:11:02;9.73;;;6.33;;
2462;SDS011;1243;54.298;10.172;2024-01-11T07:13:29;5.50;;;4.30;;
2462;SDS011;1243;54.298;10.172;2024-01-11T07:15:55;4.47;;;4.07;;
2462;SDS011;1243;54.298;10.172;2024-01-11T07:18:22;4.50;;;4.13;;
2462;SDS011;1243;54.298;10.172;2024-01-11T07:20:48;6.40;;;4.30;;
2462;SDS011;1243;54.298;10.172;2024-01-11T07:23:14;5.77;;;5.20;;
2462;SDS011;1243;54.298;10.172;2024-01-11T07:25:40;7.30;;;4.80;;
2462;SDS011;1243;54.298;10.172;2024-01-11T07:28:06;4.87;;;3.60;;
2462;SDS011;1243;54.298;10.172;2024-01-11T07:30:32;5.50;;;4.43;;
2462;SDS011;1243;54.298;10.172;2024-01-11T07:32:58;5.20;;;4.50;;
2462;SDS011;1243;54.298;10.172;2024-01-11T07:35:24;12.20;;;5.50;;
2462;SDS011;1243;54.298;10.172;2024-01-11T07:37:49;5.10;;;4.63;;
2462;SDS011;1243;54.298;10.172;2024-01-11T07:40:15;9.00;;;4.43;;
2462;SDS011;1243;54.298;10.172;2024-01-11T07:42:41;4.70;;;4.30;;
2462;SDS011;1243;54.298;10.172;2024-01-11T07:45:08;11.30;;;5.33;;
2462;SDS011;1243;54.298;10.172;2024-01-11T07:47:37;5.83;;;4.17;;
2462;SDS011;1243;54.298;10.172;2024-01-11T07:50:06;4.87;;;4.47;;
2462;SDS011;1243;54.298;10.172;2024-01-11T07:52:34;7.17;;;4.33;;
2462;SDS011;1243;54.298;10.172;2024-01-11T07:55:01;5.27;;;4.53;;
2462;SDS011;1243;54.298;10.172;2024-01-11T07:57:32;6.40;;;4.53;;
2462;SDS011;1243;54.298;10.172;2024-01-11T08:00:05;6.90;;;4.47;;
2462;SDS011;1243;54.298;10.172;2024-01-11T08:02:34;8.90;;;4.37;;
2462;SDS011;1243;54.298;10.172;2024-01-11T08:05:00;6.80;;;5.67;;
2462;SDS011;1243;54.298;10.172;2024-01-11T08:07:26;5.37;;;4.70;;
2462;SDS011;1243;54.298;10.172;2024-01-11T08:09:52;7.00;;;4.90;;
2462;SDS011;1243;54.298;10.172;2024-01-11T08:12:18;5.07;;;4.57;;
2462;SDS011;1243;54.298;10.172;2024-01-11T08:14:43;4.60;;;4.20;;
2462;SDS011;1243;54.298;10.172;2024-01-11T08:17:11;6.97;;;5.53;;
2462;SDS011;1243;54.298;10.172;2024-01-11T08:19:38;5.50;;;4.33;;
2462;SDS011;1243;54.298;10.172;2024-01-11T08:22:05;6.10;;;4.90;;
2462;SDS011;1243;54.298;10.172;2024-01-11T08:24:31;6.03;;;5.40;;
2462;SDS011;1243;54.298;10.172;2024-01-11T08:26:56;11.10;;;5.47;;
2462;SDS011;1243;54.298;10.172;2024-01-11T08:29:22;15.37;;;6.30;;
2462;SDS011;1243;54.298;10.172;2024-01-11T08:31:48;15.50;;;6.23;;
2462;SDS011;1243;54.298;10.172;2024-01-11T08:34:15;9.67;;;5.90;;
2462;SDS011;1243;54.298;10.172;2024-01-11T08:36:41;8.50;;;5.10;;
2462;SDS011;1243;54.298;10.172;2024-01-11T08:39:07;13.97;;;6.53;;
2462;SDS011;1243;54.298;10.172;2024-01-11T08:41:33;9.10;;;6.40;;
2462;SDS011;1243;54.298;10.172;2024-01-11T08:44:05;10.17;;;6.90;;
2462;SDS011;1243;54.298;10.172;2024-01-11T08:46:31;9.90;;;6.83;;
2462;SDS011;1243;54.298;10.172;2024-01-11T08:48:58;13.40;;;7.17;;
2462;SDS011;1243;54.298;10.172;2024-01-11T08:51:24;9.40;;;6.83;;
2462;SDS011;1243;54.298;10.172;2024-01-11T08:53:50;16.00;;;8.43;;
2462;SDS011;1243;54.298;10.172;2024-01-11T08:56:18;15.80;;;9.07;;
2462;SDS011;1243;54.298;10.172;2024-01-11T08:58:43;15.00;;;7.00;;
2462;SDS011;1243;54.298;10.172;2024-01-11T09:01:09;17.80;;;8.30;;
2462;SDS011;1243;54.298;10.172;2024-01-11T09:03:35;15.67;;;9.80;;
2462;SDS011;1243;54.298;10.172;2024-01-11T09:06:04;12.10;;;8.67;;
2462;SDS011;1243;54.298;10.172;2024-01-11T09:08:29;12.90;;;7.70;;
2462;SDS011;1243;54.298;10.172;2024-01-11T09:10:55;13.73;;;8.90;;
2462;SDS011;1243;54.298;10.172;2024-01-11T09:13:23;15.27;;;9.07;;
2462;SDS011;1243;54.298;10.172;2024-01-11T09:15:51;15.03;;;9.43;;
2462;SDS011;1243;54.298;10.172;2024-01-11T09:18:17;12.40;;;8.10;;
2462;SDS011;1243;54.298;10.172;2024-01-11T09:20:43;14.47;;;8.60;;
2462;SDS011;1243;54.298;10.172;2024-01-11T09:23:08;14.57;;;8.00;;
2462;SDS011;1243;54.298;10.172;2024-01-11T09:25:34;17.97;;;9.77;;
2462;SDS011;1243;54.298;10.172;2024-01-11T09:28:00;11.00;;;7.30;;
2462;SDS011;1243;54.298;10.172;2024-01-11T09:30:26;12.53;;;8.37;;
2462;SDS011;1243;54.298;10.172;2024-01-11T09:32:52;12.93;;;8.43;;
2462;SDS011;1243;54.298;10.172;2024-01-11T09:35:18;15.30;;;8.17;;
2462;SDS011;1243;54.298;10.172;2024-01-11T09:37:43;15.37;;;8.00;;
2462;SDS011;1243;54.298;10.172;2024-01-11T09:40:11;11.60;;;7.93;;
2462;SDS011;1243;54.298;10.172;2024-01-11T09:42:37;11.30;;;8.13;;
2462;SDS011;1243;54.298;10.172;2024-01-11T09:45:07;10.70;;;7.13;;
2462;SDS011;1243;54.298;10.172;2024-01-11T09:47:42;15.40;;;8.07;;
2462;SDS011;1243;54.298;10.172;2024-01-11T09:50:12;12.67;;;8.90;;
2462;SDS011;1243;54.298;10.172;2024-01-11T09:52:49;11.33;;;8.43;;
2462;SDS011;1243;54.298;10.172;2024-01-11T09:55:16;13.13;;;8.30;;
2462;SDS011;1243;54.298;10.172;2024-01-11T09:57:46;13.83;;;9.20;;
2462;SDS011;1243;54.298;10.172;2024-01-11T10:00:13;12.43;;;8.57;;
2462;SDS011;1243;54.298;10.172;2024-01-11T10:02:47;15.50;;;9.20;;
2462;SDS011;1243;54.298;10.172;2024-01-11T10:05:13;13.87;;;8.67;;
2462;SDS011;1243;54.298;10.172;2024-01-11T10:07:41;11.40;;;8.63;;
2462;SDS011;1243;54.298;10.172;2024-01-11T10:10:07;8.73;;;7.73;;
2462;SDS011;1243;54.298;10.172;2024-01-11T10:12:37;12.00;;;8.50;;
2462;SDS011;1243;54.298;10.172;2024-01-11T10:15:07;9.53;;;7.43;;
2462;SDS011;1243;54.298;10.172;2024-01-11T10:17:44;13.67;;;7.37;;
2462;SDS011;1243;54.298;10.172;2024-01-11T10:20:11;8.37;;;7.53;;
2462;SDS011;1243;54.298;10.172;2024-01-11T10:22:39;12.30;;;8.47;;
2462;SDS011;1243;54.298;10.172;2024-01-11T10:25:17;9.97;;;8.47;;
2462;SDS011;1243;54.298;10.172;2024-01-11T10:27:43;18.13;;;9.50;;
2462;SDS011;1243;54.298;10.172;2024-01-11T10:30:11;11.73;;;7.33;;
2462;SDS011;1243;54.298;10.172;2024-01-11T10:32:45;12.53;;;7.23;;
2462;SDS011;1243;54.298;10.172;2024-01-11T10:35:12;10.53;;;7.90;;
2462;SDS011;1243;54.298;10.172;2024-01-11T10:37:38;9.13;;;6.60;;
2462;SDS011;1243;54.298;10.172;2024-01-11T10:40:07;8.63;;;7.43;;
2462;SDS011;1243;54.298;10.172;2024-01-11T10:42:49;12.23;;;8.23;;
2462;SDS011;1243;54.298;10.172;2024-01-11T10:45:17;9.90;;;8.03;;
2462;SDS011;1243;54.298;10.172;2024-01-11T10:47:47;9.70;;;8.30;;
2462;SDS011;1243;54.298;10.172;2024-01-11T10:50:19;11.27;;;7.93;;
2462;SDS011;1243;54.298;10.172;2024-01-11T10:53:47;11.60;;;7.80;;
2462;SDS011;1243;54.298;10.172;2024-01-11T10:55:53;8.83;;;6.83;;
2462;SDS011;1243;54.298;10.172;2024-01-11T10:58:24;23.40;;;7.40;;
2462;SDS011;1243;54.298;10.172;2024-01-11T11:00:51;9.00;;;6.90;;
2462;SDS011;1243;54.298;10.172;2024-01-11T11:03:25;9.63;;;7.30;;
2462;SDS011;1243;54.298;10.172;2024-01-11T11:05:54;10.17;;;7.17;;
2462;SDS011;1243;54.298;10.172;2024-01-11T11:08:21;9.03;;;6.07;;
2462;SDS011;1243;54.298;10.172;2024-01-11T11:10:48;8.63;;;7.63;;
2462;SDS011;1243;54.298;10.172;2024-01-11T11:13:17;10.17;;;8.90;;
2462;SDS011;1243;54.298;10.172;2024-01-11T11:15:46;12.93;;;7.53;;
2462;SDS011;1243;54.298;10.172;2024-01-11T11:18:16;9.03;;;6.77;;
2462;SDS011;1243;54.298;10.172;2024-01-11T11:20:46;6.83;;;5.90;;
2462;SDS011;1243;54.298;10.172;2024-01-11T11:23:16;9.20;;;7.63;;
2462;SDS011;1243;54.298;10.172;2024-01-11T11:25:43;6.63;;;5.70;;
2462;SDS011;1243;54.298;10.172;2024-01-11T11:28:11;9.90;;;6.40;;
2462;SDS011;1243;54.298;10.172;2024-01-11T11:30:38;9.77;;;6.70;;
2462;SDS011;1243;54.298;10.172;2024-01-11T11:33:08;12.50;;;6.27;;
2462;SDS011;1243;54.298;10.172;2024-01-11T11:35:58;8.40;;;6.87;;
2462;SDS011;1243;54.298;10.172;2024-01-11T11:38:28;14.37;;;7.90;;
2462;SDS011;1243;54.298;10.172;2024-01-11T11:40:56;10.10;;;6.10;;
2462;SDS011;1243;54.298;10.172;2024-01-11T11:43:24;6.67;;;5.90;;
2462;SDS011;1243;54.298;10.172;2024-01-11T11:45:52;8.00;;;5.60;;
2462;SDS011;1243;54.298;10.172;2024-01-11T11:51:08;11.37;;;6.03;;
2462;SDS011;1243;54.298;10.172;2024-01-11T11:53:36;8.33;;;6.47;;
2462;SDS011;1243;54.298;10.172;2024-01-11T11:56:02;7.63;;;6.43;;
2462;SDS011;1243;54.298;10.172;2024-01-11T11:58:29;7.03;;;6.00;;
2462;SDS011;1243;54.298;10.172;2024-01-11T12:00:56;11.10;;;6.07;;
2462;SDS011;1243;54.298;10.172;2024-01-11T12:03:45;15.97;;;7.07;;
2462;SDS011;1243;54.298;10.172;2024-01-11T12:06:19;9.60;;;7.13;;
2462;SDS011;1243;54.298;10.172;2024-01-11T12:08:49;7.37;;;6.60;;
2462;SDS011;1243;54.298;10.172;2024-01-11T12:11:18;7.73;;;5.70;;
2462;SDS011;1243;54.298;10.172;2024-01-11T12:13:44;9.20;;;6.30;;
2462;SDS011;1243;54.298;10.172;2024-01-11T12:16:14;6.40;;;5.27;;
2462;SDS011;1243;54.298;10.172;2024-01-11T12:18:40;7.00;;;6.13;;
2462;SDS011;1243;54.298;10.172;2024-01-11T12:21:06;10.30;;;6.27;;
2462;SDS011;1243;54.298;10.172;2024-01-11T12:23:33;7.67;;;6.20;;
2462;SDS011;1243;54.298;10.172;2024-01-11T12:26:03;12.93;;;6.17;;
2462;SDS011;1243;54.298;10.172;2024-01-11T12:28:37;8.13;;;6.10;;
2462;SDS011;1243;54.298;10.172;2024-01-11T12:31:04;6.20;;;5.40;;
2462;SDS011;1243;54.298;10.172;2024-01-11T12:33:30;8.30;;;5.50;;
2462;SDS011;1243;54.298;10.172;2024-01-11T12:35:57;8.67;;;6.33;;
2462;SDS011;1243;54.298;10.172;2024-01-11T12:38:23;11.77;;;6.17;;
2462;SDS011;1243;54.298;10.172;2024-01-11T12:40:48;15.13;;;5.80;;
2462;SDS011;1243;54.298;10.172;2024-01-11T12:43:14;7.83;;;5.07;;
2462;SDS011;1243;54.298;10.172;2024-01-11T12:45:41;8.53;;;5.77;;
2462;SDS011;1243;54.298;10.172;2024-01-11T12:48:07;10.90;;;6.00;;
2462;SDS011;1243;54.298;10.172;2024-01-11T12:50:34;5.53;;;5.00;;
2462;SDS011;1243;54.298;10.172;2024-01-11T12:53:07;8.90;;;6.10;;
2462;SDS011;1243;54.298;10.172;2024-01-11T12:55:45;9.93;;;6.63;;
2462;SDS011;1243;54.298;10.172;2024-01-11T12:58:12;8.40;;;5.80;;
2462;SDS011;1243;54.298;10.172;2024-01-11T13:00:38;5.10;;;4.70;;
2462;SDS011;1243;54.298;10.172;2024-01-11T13:03:05;13.90;;;5.83;;
2462;SDS011;1243;54.298;10.172;2024-01-11T13:05:37;9.50;;;5.23;;
2462;SDS011;1243;54.298;10.172;2024-01-11T13:08:09;10.53;;;6.83;;
2462;SDS011;1243;54.298;10.172;2024-01-11T13:10:36;8.87;;;5.73;;
2462;SDS011;1243;54.298;10.172;2024-01-11T13:13:02;11.70;;;5.33;;
2462;SDS011;1243;54.298;10.172;2024-01-11T13:15:29;10.80;;;5.47;;
2462;SDS011;1243;54.298;10.172;2024-01-11T13:17:56;5.67;;;5.03;;
2462;SDS011;1243;54.298;10.172;2024-01-11T13:20:22;10.63;;;5.50;;
2462;SDS011;1243;54.298;10.172;2024-01-11T13:22:49;20.23;;;5.70;;
2462;SDS011;1243;54.298;10.172;2024-01-11T13:25:19;7.77;;;4.90;;
2462;SDS011;1243;54.298;10.172;2024-01-11T13:27:44;7.67;;;5.50;;
2462;SDS011;1243;54.298;10.172;2024-01-11T13:30:10;10.77;;;5.97;;
2462;SDS011;1243;54.298;10.172;2024-01-11T13:32:37;9.23;;;5.33;;
2462;SDS011;1243;54.298;10.172;2024-01-11T13:35:03;10.53;;;6.63;;
2462;SDS011;1243;54.298;10.172;2024-01-11T13:37:29;10.17;;;6.30;;
2462;SDS011;1243;54.298;10.172;2024-01-11T13:39:54;6.87;;;5.73;;
2462;SDS011;1243;54.298;10.172;2024-01-11T13:42:20;13.40;;;6.20;;
2462;SDS011;1243;54.298;10.172;2024-01-11T13:44:46;8.63;;;5.37;;
2462;SDS011;1243;54.298;10.172;2024-01-11T13:47:11;8.10;;;5.00;;
2462;SDS011;1243;54.298;10.172;2024-01-11T13:49:38;11.13;;;6.00;;
2462;SDS011;1243;54.298;10.172;2024-01-11T13:52:03;9.63;;;6.73;;
2462;SDS011;1243;54.298;10.172;2024-01-11T13:54:29;23.87;;;7.03;;
2462;SDS011;1243;54.298;10.172;2024-01-11T13:56:55;6.60;;;5.70;;
2462;SDS011;1243;54.298;10.172;2024-01-11T13:59:21;13.63;;;6.10;;
2462;SDS011;1243;54.298;10.172;2024-01-11T14:01:46;8.67;;;5.73;;
2462;SDS011;1243;54.298;10.172;2024-01-11T14:04:12;16.83;;;7.90;;
2462;SDS011;1243;54.298;10.172;2024-01-11T14:06:38;6.47;;;5.73;;
2462;SDS011;1243;54.298;10.172;2024-01-11T14:09:03;12.97;;;6.03;;
2462;SDS011;1243;54.298;10.172;2024-01-11T14:11:32;6.33;;;5.73;;
2462;SDS011;1243;54.298;10.172;2024-01-11T14:13:58;7.90;;;5.70;;
2462;SDS011;1243;54.298;10.172;2024-01-11T14:16:24;7.50;;;5.90;;
2462;SDS011;1243;54.298;10.172;2024-01-11T14:18:50;13.30;;;6.33;;
2462;SDS011;1243;54.298;10.172;2024-01-11T14:21:16;15.13;;;6.30;;
2462;SDS011;1243;54.298;10.172;2024-01-11T14:23:41;13.23;;;6.40;;
2462;SDS011;1243;54.298;10.172;2024-01-11T14:26:07;7.27;;;5.43;;
2462;SDS011;1243;54.298;10.172;2024-01-11T14:28:32;11.70;;;5.80;;
2462;SDS011;1243;54.298;10.172;2024-01-11T14:30:58;8.33;;;5.70;;
2462;SDS011;1243;54.298;10.172;2024-01-11T14:33:24;5.93;;;5.40;;
2462;SDS011;1243;54.298;10.172;2024-01-11T14:35:49;14.20;;;6.20;;
2462;SDS011;1243;54.298;10.172;2024-01-11T14:38:15;7.43;;;6.73;;
2462;SDS011;1243;54.298;10.172;2024-01-11T14:40:41;7.13;;;6.07;;
2462;SDS011;1243;54.298;10.172;2024-01-11T14:43:07;6.17;;;5.60;;
2462;SDS011;1243;54.298;10.172;2024-01-11T14:45:33;7.23;;;5.93;;
2462;SDS011;1243;54.298;10.172;2024-01-11T14:47:59;6.17;;;4.70;;
2462;SDS011;1243;54.298;10.172;2024-01-11T14:50:25;12.50;;;4.90;;
2462;SDS011;1243;54.298;10.172;2024-01-11T14:52:51;9.47;;;4.97;;
2462;SDS011;1243;54.298;10.172;2024-01-11T14:55:17;8.43;;;6.80;;
2462;SDS011;1243;54.298;10.172;2024-01-11T14:57:42;10.17;;;6.27;;